LSMD 192320Z AUTO 00000KT 9999NDV BKN120 OVC140 17/14 Q1024 RMK LSMD 192220Z AUTO 00000KT 9999NDV BKN130 16/13 Q1024 RMK LSMD 192150Z AUTO VRB02KT 9999NDV NCD 17/14 Q1024 RMK LSMD 192120Z AUTO 13001KT 9999NDV NCD 18/14 Q1024 RMK LSMD 192020Z AUTO 11003KT 090V180 9999NDV NCD 18/14 Q1024 RMK LSMD 191950Z AUTO 13003KT 9999NDV NCD 21/14 Q1023 RMK LSMD 191920Z AUTO 15004KT 130V190 9999NDV NCD 20/14 Q1023 RMK LSMD 191850Z AUTO 14004KT 090V180 9999NDV FEW150 21/15 Q1023 RMK LSMD 191820Z AUTO 16004KT 120V190 9999NDV BKN120 21/16 Q1023 RMK LSMD 191750Z AUTO 13004KT 090V150 9999NDV SCT110 BKN140 21/16 Q1023 RMK LSMD 191720Z AUTO 16009KT 100V210 9999NDV FEW024 SCT082 BKN110 23/15 Q1023 RMK LSMD 191650Z AUTO 15009KT 9999NDV BKN120 23/13 Q1023 RMK LSMD 191620Z AUTO 15007KT 9999NDV FEW110 24/14 Q1023 RMK LSMD 191550Z AUTO 14007KT 9999NDV FEW190 24/15 Q1023 RERA RMK LSMD 191520Z AUTO VRB05KT 9999NDV SHRA FEW024 SCT065 23/18 Q1023 RMK LSMD 191450Z AUTO 27010G25KT 230V030 9999NDV FEW057 SCT091 BKN120 26/13 Q1023 RMK LSMD 191350Z 21006KT 160V250 9999 FEW130 29/14 Q1022 RMK BLU+ LSMD 191320Z 21005KT 160V250 9999 FEW140 28/14 Q1022 RMK BLU+ LSMD 191250Z 21006KT 170V260 9999 FEW130 28/14 Q1022 RMK BLU+ LSMD 191220Z VRB04KT 9999 FEW055TCU 28/13 Q1022 RMK BLU+ LSMD 191150Z VRB04KT CAVOK 29/15 Q1022 RMK BLU LSMD 191120Z 10003KT 060V140 CAVOK 28/15 Q1022 RMK BLU LSMD 191050Z VRB02KT 9000 NSC 28/15 Q1023 RMK BLU LSMD 191020Z 17004KT 110V230 CAVOK 27/15 Q1023 RMK BLU LSMD 190950Z 00000KT CAVOK 27/15 Q1023 RMK BLU LSMD 190920Z VRB01KT CAVOK 27/16 Q1023 RMK BLU LSMD 190850Z 16004KT 120V210 CAVOK 25/14 Q1023 RMK BLU LSMD 190820Z 16004KT 120V220 CAVOK 24/14 Q1024 RMK BLU LSMD 190750Z 00000KT CAVOK 24/15 Q1024 RMK BLU LSMD 190720Z 00000KT CAVOK 21/13 Q1024 RMK BLU LSMD 190650Z 00000KT CAVOK 20/14 Q1023 RMK BLU LSMD 190620Z 00000KT CAVOK 18/13 Q1023 RMK BLU LSMD 190550Z 00000KT CAVOK 17/13 Q1023 RMK BLU LSMD 190520Z 00000KT CAVOK 16/13 Q1023 RMK BLU LSMD 190450Z 00000KT CAVOK 14/12 Q1023 RMK BLU LSMD 190420Z AUTO 00000KT 9999NDV NCD 14/12 Q1022 RMK LSMD 190350Z AUTO 00000KT 9999NDV NCD 13/11 Q1022 RMK LSMD 190320Z AUTO 12002KT 9999NDV NCD 14/11 Q1022 RMK LSMD 190250Z AUTO 13002KT 9999NDV NCD 14/11 Q1022 RMK LSMD 190150Z AUTO 00000KT 9999NDV NCD 15/11 Q1022 RMK LSMD 190120Z AUTO 00000KT 9999NDV NCD 15/11 Q1021 RMK LSMD 190050Z AUTO VRB01KT 9999NDV NCD 16/12 Q1021 RMK LSMD 190020Z AUTO 00000KT 9999NDV NCD 18/12 Q1021 RMK LSMD 182350Z AUTO VRB01KT 9999NDV NCD 18/11 Q1021 RMK LSMD 182320Z AUTO 00000KT 9999NDV NCD 19/11 Q1021 RMK LSMD 182250Z AUTO VRB02KT 9999NDV NCD 19/11 Q1021 RMK LSMD 182220Z AUTO 00000KT 9999NDV NCD 17/11 Q1021 RMK LSMD 182150Z AUTO VRB01KT 9999NDV NCD 18/11 Q1021 RMK LSMD 182120Z AUTO VRB01KT 9999NDV NCD 19/11 Q1021 RMK LSMD 182050Z AUTO 00000KT 9999NDV NCD 21/11 Q1021 RMK LSMD 182020Z AUTO VRB02KT 9999NDV NCD 22/11 Q1021 RMK LSMD 181950Z AUTO 00000KT 9999NDV NCD 22/11 Q1021 RMK LSMD 181920Z AUTO 05004KT 9999NDV NCD 22/10 Q1021 RMK LSMD 181850Z AUTO 06005KT 030V100 9999NDV NCD 23/11 Q1020 RMK LSMD 181820Z AUTO 06005KT 030V090 9999NDV NCD 24/11 Q1020 RMK LSMD 181750Z AUTO 07006KT 040V100 9999NDV NCD 26/10 Q1020 RMK LSMD 181720Z AUTO 07006KT 040V120 9999NDV NCD 26/11 Q1020 RMK LSMD 181650Z AUTO 07007KT 040V110 9999NDV NCD 27/11 Q1020 RMK LSMD 181620Z AUTO 09007KT 050V150 9999NDV NCD 27/11 Q1020 RMK LSMD 181550Z AUTO 05004KT 340V110 9999NDV NCD 27/12 Q1020 RMK LSMD 181520Z AUTO 06007KT 020V110 9999NDV NCD 27/11 Q1021 RMK LSMD 181450Z AUTO 09007KT 030V130 9999NDV NCD 27/12 Q1021 RMK LSMD 181420Z 09007KT 050V120 CAVOK 27/12 Q1021 RMK BLU LSMD 181350Z 07006KT 010V120 CAVOK 27/11 Q1021 RMK BLU LSMD 181320Z 03005KT 300V070 CAVOK 27/12 Q1021 RMK BLU LSMD 181250Z 04006KT 350V090 CAVOK 26/12 Q1021 RMK BLU LSMD 181220Z 06005KT 340V100 CAVOK 26/12 Q1022 RMK BLU

METAR Messwerte "DUBENDORF" LSMD

Zurück zur Übersicht

Ortsname
Ländercode / m ü. NN
Zeit Temperatur Taupunkt Rel.
Luftfeuchte
Luftdruck:
Altimeter
NN
Station
Wind in Beaufort
(Knoten)
Sichtweite
(Meter)
Wolken
(Meter über Grund)
Wettererscheinung
DUBENDORF
CH 436
Fr 20.05. 01:20171482 %1024
1024
972
Windstill Bedeckt (4300)
Stark bewölkt (3700)
 
DUBENDORF
CH 436
Fr 20.05. 00:20161382 %1024
1024
972
Windstill Stark bewölkt (4000) 
DUBENDORF
CH 436
Do 19.05. 23:50171482 %1024
1024
972
Uml 1 (2)   
DUBENDORF
CH 436
Do 19.05. 23:20181477 %1024
1024
972
SO 1 (1)   
DUBENDORF
CH 436
Do 19.05. 22:20181477 %1024
1024
972
OSO 2 (3)
O - S
   
DUBENDORF
CH 436
Do 19.05. 21:50211464 %1023
1022
971
SO 2 (3)   
DUBENDORF
CH 436
Do 19.05. 21:20201468 %1023
1022
971
SSO 2 (4)
SO - S
   
DUBENDORF
CH 436
Do 19.05. 20:50211569 %1023
1022
971
SO 2 (4)
O - S
 Leicht bewölkt (4600) 
DUBENDORF
CH 436
Do 19.05. 20:20211673 %1023
1022
971
SSO 2 (4)
OSO - S
 Stark bewölkt (3700) 
DUBENDORF
CH 436
Do 19.05. 19:50211673 %1023
1022
971
SO 2 (4)
O - SSO
 Stark bewölkt (4300)
Wolkig (3400)
 
DUBENDORF
CH 436
Do 19.05. 19:20231561 %1023
1022
971
SSO 3 (9)
O - SSW
 Stark bewölkt (3400)
Wolkig (2500)
Leicht bewölkt (730)
 
DUBENDORF
CH 436
Do 19.05. 18:50231353 %1023
1022
971
SSO 3 (9) Stark bewölkt (3700) 
DUBENDORF
CH 436
Do 19.05. 18:20241454 %1023
1021
971
SSO 3 (7) Leicht bewölkt (3400) 
DUBENDORF
CH 436
Do 19.05. 17:50241557 %1023
1021
971
SO 3 (7) Leicht bewölkt (5800) 
DUBENDORF
CH 436
Do 19.05. 17:20231873 %1023
1022
971
Uml 2 (5) Wolkig (2000)
Leicht bewölkt (730)
Regen-Schauer
DUBENDORF
CH 436
Do 19.05. 16:50261345 %1023
1021
971
W 3 (10) - 6 (25)
SW - NNO
 Stark bewölkt (3700)
Wolkig (2800)
Leicht bewölkt (1700)
 
DUBENDORF
CH 436
Do 19.05. 15:50291440 %1022
1020
970
SSW 2 (6)
SSO - WSW
>= 10000Leicht bewölkt (4000) 
DUBENDORF
CH 436
Do 19.05. 15:20281442 %1022
1020
970
SSW 2 (5)
SSO - WSW
>= 10000Leicht bewölkt (4300) 
DUBENDORF
CH 436
Do 19.05. 14:50281442 %1022
1020
970
SSW 2 (6)
S - W
>= 10000Leicht bewölkt (4000) 
DUBENDORF
CH 436
Do 19.05. 14:20281340 %1022
1020
970
Uml 2 (4)>= 10000Leicht bewölkt (1700) 
DUBENDORF
CH 436
Do 19.05. 13:50291543 %1022
1020
970
Uml 2 (4)>= 10000Nicht signifikant 
DUBENDORF
CH 436
Do 19.05. 13:20281545 %1022
1020
970
O 2 (3)
ONO - SO
>= 10000Nicht signifikant 
DUBENDORF
CH 436
Do 19.05. 12:50281545 %1023
1021
971
Uml 1 (2)9000Nicht signifikant 
DUBENDORF
CH 436
Do 19.05. 12:20271548 %1023
1021
971
S 2 (4)
OSO - SW
>= 10000Nicht signifikant 
DUBENDORF
CH 436
Do 19.05. 11:50271548 %1023
1021
971
Windstill>= 10000Nicht signifikant 
DUBENDORF
CH 436
Do 19.05. 11:20271651 %1023
1021
971
Uml 1 (1)>= 10000Nicht signifikant 
DUBENDORF
CH 436
Do 19.05. 10:50251450 %1023
1021
971
SSO 2 (4)
OSO - SSW
>= 10000Nicht signifikant 
DUBENDORF
CH 436
Do 19.05. 10:20241454 %1024
1022
972
SSO 2 (4)
OSO - SW
>= 10000Nicht signifikant 
DUBENDORF
CH 436
Do 19.05. 09:50241557 %1024
1022
972
Windstill>= 10000Nicht signifikant 
DUBENDORF
CH 436
Do 19.05. 09:20211360 %1024
1023
972
Windstill>= 10000Nicht signifikant 
DUBENDORF
CH 436
Do 19.05. 08:50201468 %1023
1022
971
Windstill>= 10000Nicht signifikant 
DUBENDORF
CH 436
Do 19.05. 08:20181373 %1023
1023
971
Windstill>= 10000Nicht signifikant 
DUBENDORF
CH 436
Do 19.05. 07:50171377 %1023
1023
971
Windstill>= 10000Nicht signifikant 
DUBENDORF
CH 436
Do 19.05. 07:20161382 %1023
1023
971
Windstill>= 10000Nicht signifikant 
DUBENDORF
CH 436
Do 19.05. 06:50141288 %1023
1023
971
Windstill>= 10000Nicht signifikant 
DUBENDORF
CH 436
Do 19.05. 06:20141288 %1022
1022
970
Windstill   
DUBENDORF
CH 436
Do 19.05. 05:50131188 %1022
1022
970
Windstill   
DUBENDORF
CH 436
Do 19.05. 05:20141182 %1022
1022
970
OSO 1 (2)   
DUBENDORF
CH 436
Do 19.05. 04:50141182 %1022
1022
970
SO 1 (2)   
DUBENDORF
CH 436
Do 19.05. 03:50151177 %1022
1022
970
Windstill   
DUBENDORF
CH 436
Do 19.05. 03:20151177 %1021
1021
969
Windstill   
DUBENDORF
CH 436
Do 19.05. 02:50161277 %1021
1021
969
Uml 1 (1)   
DUBENDORF
CH 436
Do 19.05. 02:20181268 %1021
1021
969
Windstill   
DUBENDORF
CH 436
Do 19.05. 01:50181164 %1021
1021
969
Uml 1 (1)   
DUBENDORF
CH 436
Do 19.05. 01:20191160 %1021
1020
969
Windstill   
DUBENDORF
CH 436
Do 19.05. 00:50191160 %1021
1020
969
Uml 1 (2)   
DUBENDORF
CH 436
Do 19.05. 00:20171168 %1021
1021
969
Windstill   
DUBENDORF
CH 436
Mi 18.05. 23:50181164 %1021
1021
969
Uml 1 (1)   
DUBENDORF
CH 436
Mi 18.05. 23:20191160 %1021
1020
969
Uml 1 (1)   
DUBENDORF
CH 436
Mi 18.05. 22:50211153 %1021
1020
969
Windstill   
DUBENDORF
CH 436
Mi 18.05. 22:20221150 %1021
1020
969
Uml 1 (2)   
DUBENDORF
CH 436
Mi 18.05. 21:50221150 %1021
1020
969
Windstill   
DUBENDORF
CH 436
Mi 18.05. 21:20221046 %1021
1020
969
NO 2 (4)   
DUBENDORF
CH 436
Mi 18.05. 20:50231147 %1020
1019
968
ONO 2 (5)
NNO - O
   
DUBENDORF
CH 436
Mi 18.05. 20:20241144 %1020
1018
968
ONO 2 (5)
NNO - O
   
DUBENDORF
CH 436
Mi 18.05. 19:50261037 %1020
1018
968
ONO 2 (6)
NO - O
   
DUBENDORF
CH 436
Mi 18.05. 19:20261139 %1020
1018
968
ONO 2 (6)
NO - OSO
   
DUBENDORF
CH 436
Mi 18.05. 18:50271137 %1020
1018
968
ONO 3 (7)
NO - OSO
   
DUBENDORF
CH 436
Mi 18.05. 18:20271137 %1020
1018
968
O 3 (7)
NO - SSO
   
DUBENDORF
CH 436
Mi 18.05. 17:50271239 %1020
1018
968
NO 2 (4)
NNW - OSO
   
DUBENDORF
CH 436
Mi 18.05. 17:20271137 %1021
1019
969
ONO 3 (7)
NNO - OSO
   
DUBENDORF
CH 436
Mi 18.05. 16:50271239 %1021
1019
969
O 3 (7)
NNO - SO
   
DUBENDORF
CH 436
Mi 18.05. 16:20271239 %1021
1019
969
O 3 (7)
NO - OSO
>= 10000Nicht signifikant 
DUBENDORF
CH 436
Mi 18.05. 15:50271137 %1021
1019
969
ONO 2 (6)
N - OSO
>= 10000Nicht signifikant 
DUBENDORF
CH 436
Mi 18.05. 15:20271239 %1021
1019
969
NNO 2 (5)
WNW - ONO
>= 10000Nicht signifikant 
DUBENDORF
CH 436
Mi 18.05. 14:50261242 %1021
1019
969
NO 2 (6)
N - O
>= 10000Nicht signifikant 
DUBENDORF
CH 436
Mi 18.05. 14:20261242 %1022
1020
970
ONO 2 (5)
NNW - O
>= 10000Nicht signifikant 

Altimeter: Einstellung am Altimeter (Höhenmesser), die Höhe 0 muss auf diesen Luftdruckwert zeigen, damit das Gerät die Stationshöhe richtig anzeigt.

NN: Luftdruck reduziert auf "Normal Null", auf Meereshöhe, dieser von der Temperatur abhängige Wert wird bisweilen unkorrekt einfach als "Luftdruck" bezeichnet. Eigentlich nur eine fiktive Größe, die es erlaubt, Stationen auf unterschiedlichen Höhen miteinander zu vergleichen.

Station: Realer Luftdruck an der Station.